Airfield :
LOGIN :

Register | Disclaimer

   EN    FR    IT 

 










Legend :    VFR   Marginal VFR   IFR   Intensive IFR   Very Intensive IFR
Visi :
Ceiling :
>= 8 km
>= 3000ft
5 to 8 km
1000 to 3000 ft
1500m to 5 km
500 to 1000 ft
800 to 1500m
200 to 500 ft
< 800m
< 200 ft
Symbols :   Thunderstorms  Fog  Heavy snow  Heavy precipitations  Wind > 20 kt
SIGMETs :     Misc.  Thunderstorms  Icing  Turbulence  Mountain Waves  Volcanic Ashes







- Airport Elevation : 36 ft
- IATA code : LTQ
- Download approach charts


LFAT - Le Touquet

CURRENT METAR :
  • 151000Z AUTO 36008KT 340V050 3500 RA BR BKN019/// OVC025/// ///TCU 05/04 Q0994 TEMPO 2000 TSRAGS BKN008 BKN015CB

EXPIRED METARs :
  • 150930Z AUTO 02004KT 290V050 9999 -RA SCT015/// BKN023/// BKN030/// ///TCU 06/04 Q0993 TEMPO 2000 TSRAGS BKN008 BKN015CB
  • 150900Z AUTO 01007KT 9999 FEW017 SCT027 OVC040 06/04 Q0993 TEMPO 2000 TSRAGS BKN008 BKN015CB
  • 150830Z AUTO 36006KT 9999 FEW017/// BKN040/// OVC050/// ///TCU 06/04 Q0992 TEMPO 2000 TSRAGS BKN008 BKN015CB
  • 150800Z AUTO 32009KT 9999 -RA FEW018/// BKN046/// OVC054/// ///TCU 07/04 Q0992 TEMPO 2000 TSRAGS BKN008 BKN015CB
  • 150730Z AUTO 32009KT 9999 FEW022/// BKN046/// BKN056/// ///TCU 07/03 Q0992 TEMPO 2000 TSRAGS BKN008 BKN015CB

TAF TAF LFAT
Valid from the 15 at 09:00 until the 15 at 18:00 UTC


150800Z 1509/1518 33012KT 9999 BKN025
TEMPO 1509/1518 4000 SHRA BKN015TCU
PROB30
TEMPO 1510/1514 2000 TSRAGS BKN008 BKN015CB
ATIS : +33 3 21 06 62 84
No reported NOTAMs for that airfield.



MET'MAP, your aeronautical weather chart ! - Copyright ORBIFLY December 2007 - Disclaimer

ORBIFLY MET'MAP TEAM :

Programming & Development : Alexandra Zaïnal
Concept & Development : Baudouin d'Aumeries
Co-Development & Prog : Marc-Olivier Méhu
Technical & hardware support : Manuel Goepfert

Contact : metmap@orbifly.com




SOURCES & CREDITS :

   NOAA